Strona główna
METAR-TAF:

METAR-TAF

Lotnisko :

Port lotniczy Sandakan

Sandakan, Malezja

Szerokość geograficzna: 05-54N, Długość geograficzna: 118-04E, wysokość: 12 m

Aktualna obserwacja pogody

Raport powstał 1 godzina i 9 minut temu, godzina 23:00 UTC
Cisza
Temperatura 25°C
Wilgotność 94%
Ciśnienie 1010 hPa
Widzialność 10 km lub więcej
Mało chmury na wysokości 1600 ft

METAR: WBKS 182300Z 00000KT 9999 FEW016 25/24 Q1010

czas: 08:09 (00:09 UTC)

Prognoza

Raport powstał 1 godzina i 9 minut temu, godzina 23:00 UTC
Prognoza ważna od 19 godzina 00 UTC do 20 godzina 00 UTC
Wiatr 5 kt od zachodnio-południowy zachód
Widzialność 10 km lub więcej
Mało chmury na wysokości 1600 ft
Stopniowe zmiany
od 19 godzina 05 UTC do 19 godzina 07 UTC
Wiatr 8 kt od północny wschód

TAF: WBKS 182300Z 1900/2000 25005KT 9999 FEW016 BECMG 1905/1907 05008KT

Obserwacja i prognoza pogody dla ponad 4000 lotnisk (raport METAR i TAF).

Dostępne stacje oznaczono żółtymi i czerwonymi punktami na mapie.

Najedź kursorem aby zobaczyć nazwę stacji.

Kliknij aby zobaczyć obserwacje i prognozy pogody.

Aby zmienić mapę: kliknij na zielony przycisk z czarnym krzyżykiem, aby powiększyć; na zielony przycisk z myślnikiem, aby pomniejszyć; na zielone strzałki, aby przejść do map sąsiednich.


METAR-TAF: